Latest Weather Observations for Townsville

IDQ60801

Issued at 10:02 pm EST Saturday 24 February 2024 (issued every 10 minutes, with the page automatically refreshed every 10 minutes)

About weather observations | Map of weather stations | Latest weather observations for QLD | Other Formats
Station Details ID: 032040 Name: TOWNSVILLE AERO Lat: -19.25 Lon: 146.77 Height: 4.34 m
Data from the previous 72 hours. | See also: Recent months at Townsville
Date/Time
EST
Temp
°C
App
Temp
°C
Dew
Point
°C
Rel
Hum
%
Delta-T
°C
Wind Press
QNH
hPa
Press
MSL
hPa
Rain since
9am
mm
Dir  Spd
km/h
Gust
km/h
Spd
kts
Gust
kts
24/10:00pm 22.9 23.9 21.0 89 1.2 SSW 17 22 9 12 1011.1 1011.0 14.4
24/09:31pm 22.7 24.7 20.8 89 1.2 SSW 11 15 6 8 1011.0 1010.9 14.4
24/09:30pm 22.7 24.7 20.8 89 1.2 SSW 11 15 6 8 1011.0 1010.9 14.4
24/09:00pm 22.6 23.8 20.7 89 1.2 SSW 15 19 8 10 1010.7 1010.6 14.4
24/08:47pm 22.6 24.1 20.5 88 1.4 S 13 15 7 8 1010.7 1010.6 14.4
24/08:30pm 22.7 23.9 20.6 88 1.4 SSW 15 19 8 10 1010.4 1010.3 14.4
24/08:00pm 22.8 24.2 20.3 86 1.6 SSW 13 17 7 9 1010.0 1009.9 14.4
24/07:30pm 22.9 24.0 20.4 86 1.6 SSW 15 19 8 10 1009.7 1009.6 14.4
24/07:00pm 23.0 23.8 20.7 87 1.5 SSW 17 20 9 11 1009.3 1009.2 14.4
24/06:30pm 23.4 23.8 20.7 85 1.8 SSW 19 24 10 13 1009.0 1008.9 14.4
24/06:00pm 23.9 25.5 21.4 86 1.7 SE 15 19 8 10 1008.6 1008.5 14.4
24/05:30pm 24.2 26.1 22.1 88 1.4 SSE 15 24 8 13 1007.9 1007.8 14.4
24/05:00pm 24.0 25.2 22.1 89 1.3 SSW 19 28 10 15 1007.1 1007.0 14.4
24/04:30pm 23.8 25.6 21.9 89 1.3 S 15 22 8 12 1007.3 1007.2 14.2
24/04:00pm 23.9 26.7 22.3 91 1.1 SW 11 15 6 8 1007.5 1007.4 14.0
24/03:30pm 23.5 24.6 22.3 93 0.8 SSE 20 28 11 15 1007.4 1007.3 13.6
24/03:00pm 23.2 25.2 22.2 94 0.7 SSE 15 20 8 11 1007.9 1007.8 11.6
24/02:30pm 23.4 25.8 22.2 93 0.8 S 13 17 7 9 1008.4 1008.3 8.6
24/02:00pm 23.5 25.4 22.1 92 0.9 SSW 15 19 8 10 1008.6 1008.5 6.6
24/01:30pm 23.8 24.5 22.2 91 1.1 SSW 22 30 12 16 1008.4 1008.3 5.8
24/01:00pm 23.6 24.6 21.7 89 1.3 SSW 19 28 10 15 1009.0 1008.9 5.4
24/12:30pm 23.8 26.5 22.2 91 1.1 S 11 17 6 9 1009.5 1009.4 4.4
24/12:00pm 24.0 25.8 21.9 88 1.4 SSE 15 20 8 11 1009.5 1009.4 4.0
24/11:30am 23.4 24.3 21.5 89 1.3 S 19 26 10 14 1009.7 1009.6 3.8
24/11:00am 22.5 23.0 21.1 92 0.9 SSW 20 28 11 15 1010.0 1009.9 3.6
24/10:30am 22.3 22.9 21.3 94 0.7 SSW 20 30 11 16 1010.7 1010.6 3.4
24/10:00am 22.2 22.7 21.2 94 0.7 SSW 20 28 11 15 1011.2 1011.1 2.8
24/09:30am 22.4 24.8 21.6 95 0.5 SSW 11 15 6 8 1011.2 1011.1 1.4
24/09:00am 22.5 23.8 21.7 95 0.5 SSW 17 20 9 11 1010.9 1010.8 39.6
24/08:30am 22.6 23.5 21.6 94 0.7 SSW 19 26 10 14 1010.8 1010.7 38.0
24/08:00am 22.9 24.2 21.7 93 0.8 SW 17 20 9 11 1010.5 1010.4 37.6
24/07:30am 22.9 26.2 21.9 94 0.7 S 7 11 4 6 1010.4 1010.3 37.2
24/07:00am 22.8 25.7 21.8 94 0.7 S 9 11 5 6 1010.1 1010.0 37.2
24/06:30am 22.8 24.7 21.4 92 0.9 SW 13 17 7 9 1009.5 1009.4 37.0
24/06:00am 22.7 23.8 21.3 92 0.9 SSW 17 19 9 10 1009.4 1009.3 37.0
24/05:30am 22.7 24.2 21.3 92 0.9 SSW 15 19 8 10 1009.0 1008.9 37.0
24/05:00am 22.8 25.5 21.3 91 1.0 SW 9 11 5 6 1008.8 1008.7 36.8
24/04:39am 23.0 25.8 21.6 92 0.9 SW 9 11 5 6 1009.0 1008.9 36.8
24/04:30am 23.0 25.9 21.8 93 0.8 WSW 9 11 5 6 1008.9 1008.8 36.8
24/04:09am 23.1 26.2 22.1 94 0.7 SSW 9 11 5 6 1008.7 1008.6 36.8
24/04:05am 23.0 26.0 22.0 94 0.7 S 9 11 5 6 1008.7 1008.6 36.8
24/04:00am 23.0 26.4 22.0 94 0.7 SSE 7 11 4 6 1008.7 1008.6 36.8
24/03:41am 23.0 25.9 21.8 93 0.8 S 9 11 5 6 1008.6 1008.5 36.8
24/03:35am 23.0 25.5 21.8 93 0.8 SSW 11 13 6 7 1008.6 1008.5 36.8
24/03:30am 23.1 25.6 21.7 92 0.9 SSW 11 13 6 7 1008.5 1008.4 36.8
24/03:07am 23.1 25.8 21.4 90 1.1 SE 9 11 5 6 1008.7 1008.6 36.6
24/03:00am 23.3 26.1 21.6 90 1.1 SE 9 11 5 6 1008.6 1008.5 36.4
24/02:30am 23.6 26.1 21.7 89 1.3 S 11 13 6 7 1008.8 1008.7 36.4
24/02:00am 23.6 26.2 21.9 90 1.1 SSE 11 15 6 8 1009.0 1008.9 36.4
24/01:30am 23.5 26.0 21.8 90 1.1 SSE 11 15 6 8 1009.5 1009.4 36.4
24/01:00am 23.7 27.0 22.5 93 0.8 SE 9 11 5 6 1009.9 1009.8 36.4
24/12:30am 23.7 27.0 22.5 93 0.8 SE 9 13 5 7 1010.3 1010.2 36.2
24/12:00am 23.9 25.9 22.3 91 1.1 SE 15 17 8 9 1010.6 1010.5 36.2
 
Date/Time
EST
Temp
°C
App
Temp
°C
Dew
Point
°C
Rel
Hum
%
Delta-T
°C
Wind Press
QNH
hPa
Press
MSL
hPa
Rain since
9am
mm
Dir  Spd
km/h
Gust
km/h
Spd
kts
Gust
kts
23/11:30pm 23.9 26.7 22.3 91 1.1 SSE 11 13 6 7 1011.0 1010.9 36.2
23/11:00pm 24.1 27.0 22.4 90 1.1 SE 11 17 6 9 1011.3 1011.2 36.2
23/10:30pm 24.2 27.2 22.6 91 1.1 SE 11 17 6 9 1011.6 1011.5 36.2
23/10:00pm 24.2 26.9 22.8 92 0.9 SE 13 17 7 9 1011.7 1011.6 36.2
23/09:30pm 23.8 27.0 22.4 92 0.9 SE 9 13 5 7 1011.8 1011.7 36.2
23/09:00pm 23.6 27.3 22.6 94 0.7 SE 7 11 4 6 1011.3 1011.2 36.2
23/08:30pm 23.6 26.1 22.4 93 0.8 SE 13 19 7 10 1011.2 1011.1 36.2
23/08:00pm 23.6 24.9 22.4 93 0.8 SE 19 26 10 14 1011.0 1010.9 36.2
23/07:30pm 23.6 24.7 22.4 93 0.8 SE 20 30 11 16 1010.7 1010.6 36.2
23/07:00pm 23.5 24.1 22.1 92 0.9 ESE 22 32 12 17 1010.3 1010.2 35.8
23/06:30pm 24.4 25.7 22.7 90 1.1 SE 20 28 11 15 1010.1 1010.0 35.6
23/06:00pm 24.4 26.2 23.2 93 0.8 SE 19 30 10 16 1009.8 1009.7 35.6
23/05:30pm 24.5 25.9 23.5 94 0.7 SE 22 30 12 16 1009.5 1009.4 35.6
23/05:27pm 24.4 25.7 23.4 94 0.7 SE 22 32 12 17 1009.4 1009.3 35.6
23/05:15pm 24.5 25.5 23.5 94 0.7 SE 24 35 13 19 1009.4 1009.3 35.4
23/05:00pm 24.7 26.8 23.8 95 0.6 SE 19 26 10 14 1009.4 1009.3 35.4
23/04:57pm 24.6 26.7 23.7 95 0.6 SE 19 26 10 14 1009.4 1009.3 35.4
23/04:56pm 24.7 26.8 23.8 95 0.6 SE 19 24 10 13 1009.4 1009.3 35.4
23/04:30pm 24.9 27.9 24.0 95 0.6 SE 15 20 8 11 1009.4 1009.3 35.2
23/04:11pm 24.7 27.2 23.8 95 0.6 SE 17 20 9 11 1009.3 1009.2 35.2
23/04:00pm 24.6 27.4 23.7 95 0.6 SE 15 22 8 12 1009.3 1009.2 35.2
23/03:30pm 24.5 27.0 23.8 96 0.5 SSE 17 22 9 12 1009.2 1009.1 35.2
23/03:27pm 24.5 27.0 23.8 96 0.5 SSE 17 22 9 12 1009.2 1009.1 34.8
23/03:17pm 24.4 26.8 23.7 96 0.5 SSE 17 24 9 13 1009.2 1009.1 34.8
23/03:11pm 24.4 26.6 23.9 97 0.3 SSE 19 26 10 14 1009.2 1009.1 34.8
23/03:05pm 24.5 26.7 24.0 97 0.3 SSE 19 26 10 14 1009.3 1009.2 34.8
23/03:00pm 24.5 27.1 24.0 97 0.3 SE 17 20 9 11 1009.3 1009.2 34.8
23/02:45pm 24.4 27.0 23.9 97 0.3 SE 17 24 9 13 1009.6 1009.5 33.6
23/02:30pm 24.5 26.7 24.0 97 0.3 SE 19 22 10 12 1009.8 1009.7 31.4
23/02:00pm 24.7 28.1 24.0 96 0.5 SSE 13 17 7 9 1009.9 1009.8 18.2
23/01:53pm 24.7 28.1 24.0 96 0.5 SSE 13 15 7 8 1010.0 1009.9 17.8
23/01:30pm 24.8 28.9 23.9 95 0.6 SSE 9 11 5 6 1010.1 1010.0 16.8
23/01:20pm 24.8 28.9 23.9 95 0.6 SSE 9 13 5 7 1010.3 1010.2 16.8
23/01:11pm 24.7 28.3 23.8 95 0.6 SE 11 15 6 8 1010.4 1010.3 16.8
23/01:00pm 24.9 29.0 24.0 95 0.6 E 9 11 5 6 1010.5 1010.4 16.2
23/12:36pm 24.9 28.2 23.9 94 0.7 SSE 13 19 7 10 1010.7 1010.6 14.6
23/12:30pm 25.1 29.0 24.2 95 0.6 S 11 15 6 8 1010.8 1010.7 13.8
23/12:00pm 25.1 29.4 24.2 95 0.6 SSE 9 15 5 8 1011.4 1011.3 12.8
23/11:30am 25.4 30.2 24.4 94 0.7 SW 7 9 4 5 1011.5 1011.4 5.8
23/11:27am 25.5 30.0 24.6 95 0.6 SW 9 11 5 6 1011.5 1011.4 4.8
23/11:11am 25.7 29.4 24.5 93 0.8 SW 13 15 7 8 1011.4 1011.3 1.0
23/11:00am 25.9 30.0 24.5 92 1.0 SSW 11 15 6 8 1011.4 1011.3 0.2
23/10:30am 25.9 30.5 24.7 93 0.8 S 9 13 5 7 1011.5 1011.4 0.0
23/10:23am 25.9 30.0 24.5 92 1.0 SSE 11 15 6 8 1011.7 1011.6 0.0
23/10:00am 26.0 29.7 24.6 92 1.0 SSE 13 15 7 8 1012.0 1011.9 0.0
23/09:41am 26.0 29.6 24.4 91 1.1 SSE 13 17 7 9 1012.1 1012.0 0.0
23/09:30am 26.2 30.8 24.2 89 1.4 SSW 7 9 4 5 1012.0 1011.9 0.0
23/09:14am 26.3 31.1 24.2 88 1.4 S 6 7 3 4 1011.9 1011.8 0.0
23/09:00am 26.1 31.9 24.0 88 1.4 CALM 0 0 0 0 1011.9 1011.8 30.0
23/08:30am 25.5 31.0 24.1 92 1.0 SSW 2 7 1 4 1011.7 1011.6 30.0
23/08:00am 25.1 30.3 23.5 91 1.1 SSW 2 7 1 4 1011.3 1011.2 30.0
23/07:30am 24.7 28.7 23.7 94 0.7 SSW 9 11 5 6 1011.1 1011.0 30.0
23/07:00am 24.4 28.6 23.5 95 0.6 S 7 11 4 6 1010.9 1010.8 30.0
23/06:30am 24.0 29.3 23.0 94 0.7 CALM 0 0 0 0 1010.7 1010.6 30.0
23/06:00am 23.8 28.6 22.8 94 0.7 SW 2 7 1 4 1010.8 1010.7 30.0
23/05:30am 23.5 27.4 22.5 94 0.7 SSE 6 9 3 5 1010.2 1010.1 30.0
23/05:00am 24.0 27.4 23.3 96 0.5 S 11 15 6 8 1010.0 1009.9 30.0
23/04:30am 24.1 27.5 23.4 96 0.5 SSE 11 15 6 8 1009.8 1009.7 29.8
23/04:18am 24.0 27.4 23.3 96 0.5 SE 11 15 6 8 1009.7 1009.6 29.8
23/04:00am 24.0 26.7 23.5 97 0.3 SE 15 19 8 10 1010.1 1010.0 29.4
23/03:52am 24.1 26.5 23.6 97 0.3 SE 17 24 9 13 1010.2 1010.1 28.2
23/03:30am 23.8 27.5 23.3 97 0.3 WSW 9 15 5 8 1009.9 1009.8 27.8
23/03:11am 23.8 26.8 23.3 97 0.3 WSW 13 17 7 9 1009.9 1009.8 27.8
23/03:00am 23.8 26.3 23.1 96 0.5 WSW 15 17 8 9 1010.1 1010.0 27.8
23/02:58am 23.8 26.4 23.3 97 0.3 W 15 19 8 10 1010.2 1010.1 27.8
23/02:43am 24.0 27.0 23.3 96 0.5 WNW 13 17 7 9 1010.4 1010.3 27.4
23/02:41am 23.9 27.6 23.2 96 0.5 WNW 9 17 5 9 1010.5 1010.4 27.2
23/02:30am 24.0 28.1 23.3 96 0.5 WNW 7 13 4 7 1010.5 1010.4 26.0
23/02:05am 24.4 27.4 23.4 94 0.7 NW 13 17 7 9 1010.8 1010.7 12.6
23/02:02am 24.6 28.1 23.6 94 0.7 WNW 11 15 6 8 1010.6 1010.5 8.8
23/02:00am 24.5 28.0 23.5 94 0.7 WNW 11 15 6 8 1010.5 1010.4 8.8
23/01:30am 24.5 28.6 23.3 93 0.8 SSW 7 9 4 5 1010.4 1010.3 8.6
23/01:00am 24.6 27.5 23.2 92 0.9 SSE 13 19 7 10 1010.6 1010.5 8.6
23/12:30am 24.9 30.6 23.7 93 0.8 CALM 0 4 0 2 1010.9 1010.8 8.6
23/12:00am 24.7 29.5 23.5 93 0.8 SSW 4 7 2 4 1011.3 1011.2 8.6
 
Date/Time
EST
Temp
°C
App
Temp
°C
Dew
Point
°C
Rel
Hum
%
Delta-T
°C
Wind Press
QNH
hPa
Press
MSL
hPa
Rain since
9am
mm
Dir  Spd
km/h
Gust
km/h
Spd
kts
Gust
kts
22/11:30pm 24.6 28.8 23.4 93 0.8 SW 7 9 4 5 1011.8 1011.7 8.6
22/11:00pm 24.6 28.3 23.2 92 0.9 WSW 9 9 5 5 1012.1 1012.0 8.6
22/10:30pm 24.7 30.0 23.1 91 1.1 CALM 0 9 0 5 1012.3 1012.2 8.4
22/10:17pm 24.6 28.1 22.8 90 1.2 ESE 9 13 5 7 1012.4 1012.3 8.4
22/10:00pm 24.6 27.2 22.7 89 1.3 SE 13 26 7 14 1012.5 1012.4 8.4
22/09:58pm 24.5 27.5 22.6 89 1.3 SE 11 26 6 14 1012.5 1012.4 8.0
22/09:30pm 25.1 27.8 22.2 84 1.9 SE 11 13 6 7 1012.1 1012.0 5.2
22/09:00pm 25.3 29.2 23.0 87 1.6 SSE 7 7 4 4 1011.9 1011.8 5.2
22/08:30pm 25.1 28.7 23.0 88 1.4 SSE 9 13 5 7 1011.7 1011.6 5.2
22/08:00pm 25.2 29.5 23.6 91 1.1 SSE 7 9 4 5 1011.5 1011.4 5.2
22/07:30pm 25.5 29.1 23.7 90 1.2 SSE 11 13 6 7 1011.2 1011.1 5.2
22/07:00pm 25.7 29.7 23.7 89 1.4 SSE 9 13 5 7 1011.0 1010.9 5.2
22/06:30pm 26.0 29.6 23.1 84 2.0 SE 9 11 5 6 1010.8 1010.7 5.2
22/06:00pm 25.9 28.9 22.6 82 2.2 E 11 15 6 8 1010.6 1010.5 5.2
22/05:30pm 25.3 26.2 22.6 85 1.8 E 22 30 12 16 1010.4 1010.3 5.2
22/05:00pm 27.5 29.6 23.1 77 3.0 ESE 17 20 9 11 1009.9 1009.8 5.0
22/04:30pm 27.6 30.3 23.4 78 2.9 E 15 19 8 10 1010.0 1009.9 5.0
22/04:00pm 28.0 30.4 23.6 77 3.0 ESE 17 20 9 11 1010.0 1009.9 5.0
22/03:30pm 28.1 31.0 23.2 74 3.3 ESE 13 17 7 9 1009.8 1009.7 5.0
22/03:00pm 27.7 30.6 23.1 76 3.1 ESE 13 19 7 10 1010.1 1010.0 5.0
22/02:30pm 27.0 29.6 22.6 77 3.0 SSE 13 15 7 8 1010.3 1010.2 4.8
22/02:00pm 26.4 28.2 23.5 84 2.0 SE 20 26 11 14 1010.5 1010.4 4.8
22/01:30pm 26.2 28.4 23.3 84 2.0 SE 17 22 9 12 1010.8 1010.7 4.8
22/01:00pm 26.0 28.6 23.3 85 1.8 SE 15 19 8 10 1011.2 1011.1 4.8
22/12:30pm 25.9 29.6 23.9 89 1.4 SSE 11 15 6 8 1011.8 1011.7 4.8
22/12:00pm 25.8 29.8 23.8 89 1.4 SSW 9 13 5 7 1012.3 1012.2 4.8
22/11:30am 25.3 28.4 23.5 90 1.2 SW 13 17 7 9 1012.8 1012.7 4.6
22/11:00am 24.9 28.1 23.7 93 0.8 SW 13 15 7 8 1013.0 1012.9 4.6
22/10:30am 24.2 26.6 23.0 93 0.8 SSW 15 17 8 9 1013.4 1013.3 4.4
22/10:00am 24.1 27.4 23.2 95 0.6 SW 11 13 6 7 1013.5 1013.4 3.4
22/09:45am 23.9 27.1 23.0 95 0.6 WSW 11 15 6 8 1013.7 1013.6 2.8
22/09:30am 23.8 27.0 23.0 95 0.5 W 11 13 6 7 1013.9 1013.8 1.6
22/09:22am 23.8 27.3 22.8 94 0.7 W 9 13 5 7 1014.0 1013.9 1.0
22/09:00am 24.1 28.1 23.1 94 0.7 SW 7 9 4 5 1013.7 1013.6 19.2
22/08:30am 24.0 26.7 22.8 93 0.8 SSW 13 17 7 9 1013.2 1013.1 18.6
22/08:00am 23.8 27.4 23.0 95 0.5 SSW 9 13 5 7 1013.1 1013.0 18.4
22/07:51am 23.6 27.1 22.8 95 0.5 WSW 9 15 5 8 1013.1 1013.0 18.2
22/07:38am 23.8 27.0 23.0 95 0.5 SW 11 15 6 8 1013.0 1012.9 17.4
22/07:30am 23.7 26.8 22.9 95 0.5 S 11 13 6 7 1012.9 1012.8 16.8
22/07:00am 23.7 27.3 23.0 96 0.5 WSW 9 13 5 7 1012.8 1012.7 15.8
22/06:52am 23.6 26.7 22.9 96 0.5 WSW 11 13 6 7 1012.6 1012.5 15.6
22/06:30am 23.4 27.3 22.6 95 0.5 SW 6 7 3 4 1012.1 1012.0 14.4
22/06:14am 23.5 27.8 22.7 95 0.5 SW 4 7 2 4 1012.1 1012.0 13.0
22/06:00am 23.5 27.3 22.7 95 0.5 WSW 7 9 4 5 1011.9 1011.8 11.8
22/05:50am 23.6 27.1 22.8 95 0.5 W 9 11 5 6 1011.9 1011.8 11.6
22/05:38am 23.6 27.1 22.8 95 0.5 WSW 9 11 5 6 1011.7 1011.6 11.0
22/05:30am 23.6 27.1 22.8 95 0.5 WSW 9 11 5 6 1011.6 1011.5 10.2
22/05:00am 23.8 27.8 23.1 96 0.5 W 7 9 4 5 1011.3 1011.2 8.0
22/04:30am 23.8 27.4 23.0 95 0.5 W 9 11 5 6 1010.8 1010.7 6.4
22/04:00am 23.9 27.5 23.0 95 0.6 WSW 9 11 5 6 1010.6 1010.5 5.6
22/03:30am 24.1 28.9 22.9 93 0.8 SW 2 7 1 4 1010.6 1010.5 4.4
22/03:00am 24.1 27.9 22.7 92 0.9 S 7 11 4 6 1010.5 1010.4 3.4
22/02:30am 23.9 27.6 22.5 92 0.9 SSE 7 11 4 6 1010.2 1010.1 2.2
22/02:00am 24.2 27.4 23.0 93 0.8 SE 11 13 6 7 1010.7 1010.6 2.0
22/01:30am 24.6 27.9 23.2 92 0.9 SE 11 15 6 8 1011.0 1010.9 1.2
22/01:00am 24.7 27.3 23.3 92 1.0 SSE 15 19 8 10 1011.0 1010.9 1.0
22/12:30am 24.8 26.7 23.4 92 1.0 SSE 19 24 10 13 1011.3 1011.2 0.8
22/12:00am 24.8 28.1 23.2 91 1.1 SE 11 22 6 12 1011.7 1011.6 0.4
 
Date/Time
EST
Temp
°C
App
Temp
°C
Dew
Point
°C
Rel
Hum
%
Delta-T
°C
Wind Press
QNH
hPa
Press
MSL
hPa
Rain since
9am
mm
Dir  Spd
km/h
Gust
km/h
Spd
kts
Gust
kts
21/11:30pm 24.7 27.2 23.1 91 1.1 SE 15 17 8 9 1011.7 1011.6 0.4
21/11:00pm 25.2 27.0 23.3 89 1.3 SSE 19 24 10 13 1011.9 1011.8 0.2
21/10:30pm 25.7 28.9 23.0 85 1.8 SE 11 15 6 8 1011.9 1011.8 0.0

Other formats

Comma delimited format used in spreadsheet applications
http://www.bom.gov.au/fwo/IDQ60801/IDQ60801.94294.axf

JavaScript Object Notation format (JSON) in row-major order
http://www.bom.gov.au/fwo/IDQ60801/IDQ60801.94294.json

Data quality

Most of these data are generated automatically and are frequently updated. Quality checks on data are not normally performed. It is possible for incorrect values to appear. Refer to information at About Latest Weather Observations and please check the disclaimer before using these data.